sensor_id;sensor_type;location;lat;lon;timestamp;pressure;altitude;pressure_sealevel;temperature;humidity
9672;BME280;4874;43.568;27.824;2023-01-28T00:01:06;98200.66;;;4.19;100.00
9672;BME280;4874;43.568;27.824;2023-01-28T00:03:32;98203.66;;;4.03;100.00
9672;BME280;4874;43.568;27.824;2023-01-28T00:06:05;98198.44;;;3.92;100.00
9672;BME280;4874;43.568;27.824;2023-01-28T00:08:33;98206.44;;;3.80;100.00
9672;BME280;4874;43.568;27.824;2023-01-28T00:11:00;98210.63;;;3.49;100.00
9672;BME280;4874;43.568;27.824;2023-01-28T00:13:28;98210.63;;;3.60;100.00
9672;BME280;4874;43.568;27.824;2023-01-28T00:15:59;98216.25;;;3.44;100.00
9672;BME280;4874;43.568;27.824;2023-01-28T00:18:27;98214.78;;;3.18;100.00
9672;BME280;4874;43.568;27.824;2023-01-28T00:21:02;98220.91;;;3.41;100.00
9672;BME280;4874;43.568;27.824;2023-01-28T00:23:32;98220.41;;;3.36;100.00
9672;BME280;4874;43.568;27.824;2023-01-28T00:26:00;98225.31;;;3.40;100.00
9672;BME280;4874;43.568;27.824;2023-01-28T00:28:28;98225.06;;;3.32;100.00
9672;BME280;4874;43.568;27.824;2023-01-28T00:30:55;98217.88;;;3.23;100.00
9672;BME280;4874;43.568;27.824;2023-01-28T00:33:23;98235.03;;;3.27;100.00
9672;BME280;4874;43.568;27.824;2023-01-28T00:35:59;98216.53;;;2.96;100.00
9672;BME280;4874;43.568;27.824;2023-01-28T00:38:27;98240.84;;;2.98;100.00
9672;BME280;4874;43.568;27.824;2023-01-28T00:40:54;98248.22;;;3.04;100.00
9672;BME280;4874;43.568;27.824;2023-01-28T00:43:21;98251.16;;;2.88;100.00
9672;BME280;4874;43.568;27.824;2023-01-28T00:45:48;98244.91;;;3.13;100.00
9672;BME280;4874;43.568;27.824;2023-01-28T00:48:15;98253.72;;;3.01;100.00
9672;BME280;4874;43.568;27.824;2023-01-28T00:50:43;98254.25;;;2.82;100.00
9672;BME280;4874;43.568;27.824;2023-01-28T00:53:11;98256.69;;;2.96;100.00
9672;BME280;4874;43.568;27.824;2023-01-28T00:55:37;98252.31;;;2.73;100.00
9672;BME280;4874;43.568;27.824;2023-01-28T00:58:04;98263.22;;;2.91;100.00
9672;BME280;4874;43.568;27.824;2023-01-28T01:00:31;98213.88;;;2.26;100.00
9672;BME280;4874;43.568;27.824;2023-01-28T01:02:58;98274.78;;;2.65;100.00
9672;BME280;4874;43.568;27.824;2023-01-28T01:05:25;98271.28;;;2.29;100.00
9672;BME280;4874;43.568;27.824;2023-01-28T01:07:52;98281.28;;;2.59;100.00
9672;BME280;4874;43.568;27.824;2023-01-28T01:10:19;98264.72;;;2.11;100.00
9672;BME280;4874;43.568;27.824;2023-01-28T01:12:47;98282.44;;;2.31;100.00
9672;BME280;4874;43.568;27.824;2023-01-28T01:15:15;98283.78;;;2.61;100.00
9672;BME280;4874;43.568;27.824;2023-01-28T01:17:45;98282.38;;;2.33;100.00
9672;BME280;4874;43.568;27.824;2023-01-28T01:20:18;98288.75;;;2.53;100.00
9672;BME280;4874;43.568;27.824;2023-01-28T01:22:45;98288.25;;;2.48;100.00
9672;BME280;4874;43.568;27.824;2023-01-28T01:25:13;98294.13;;;2.51;100.00
9672;BME280;4874;43.568;27.824;2023-01-28T01:27:41;98295.28;;;2.47;100.00
9672;BME280;4874;43.568;27.824;2023-01-28T01:30:09;98308.00;;;2.28;100.00
9672;BME280;4874;43.568;27.824;2023-01-28T01:32:36;98303.84;;;2.25;100.00
9672;BME280;4874;43.568;27.824;2023-01-28T01:35:04;98317.91;;;2.24;100.00
9672;BME280;4874;43.568;27.824;2023-01-28T01:37:34;98323.38;;;2.09;100.00
9672;BME280;4874;43.568;27.824;2023-01-28T01:40:02;98321.09;;;1.79;100.00
9672;BME280;4874;43.568;27.824;2023-01-28T01:42:33;98324.03;;;1.75;100.00
9672;BME280;4874;43.568;27.824;2023-01-28T01:45:06;98318.16;;;1.96;100.00
9672;BME280;4874;43.568;27.824;2023-01-28T01:47:56;98317.63;;;1.91;100.00
9672;BME280;4874;43.568;27.824;2023-01-28T01:50:30;98315.97;;;1.65;100.00
9672;BME280;4874;43.568;27.824;2023-01-28T01:53:03;98317.97;;;1.87;100.00
9672;BME280;4874;43.568;27.824;2023-01-28T01:55:34;98321.50;;;1.73;100.00
9672;BME280;4874;43.568;27.824;2023-01-28T01:58:08;98330.09;;;1.75;100.00
9672;BME280;4874;43.568;27.824;2023-01-28T02:00:35;98322.69;;;1.69;100.00
9672;BME280;4874;43.568;27.824;2023-01-28T02:03:02;98324.44;;;1.69;100.00
9672;BME280;4874;43.568;27.824;2023-01-28T02:05:29;98329.69;;;1.69;100.00
9672;BME280;4874;43.568;27.824;2023-01-28T02:07:57;98330.84;;;1.52;100.00
9672;BME280;4874;43.568;27.824;2023-01-28T02:10:43;98332.09;;;1.59;100.00
9672;BME280;4874;43.568;27.824;2023-01-28T02:13:10;98324.44;;;1.69;100.00
9672;BME280;4874;43.568;27.824;2023-01-28T02:15:37;98339.41;;;1.67;100.00
9672;BME280;4874;43.568;27.824;2023-01-28T02:18:03;98333.97;;;1.57;100.00
9672;BME280;4874;43.568;27.824;2023-01-28T02:23:26;98341.94;;;1.56;100.00
9672;BME280;4874;43.568;27.824;2023-01-28T02:31:14;98335.34;;;1.50;100.00
9672;BME280;4874;43.568;27.824;2023-01-28T02:39:31;98346.41;;;1.41;100.00
9672;BME280;4874;43.568;27.824;2023-01-28T02:42:15;98336.56;;;1.32;100.00
9672;BME280;4874;43.568;27.824;2023-01-28T02:44:43;98349.25;;;1.51;100.00
9672;BME280;4874;43.568;27.824;2023-01-28T02:47:11;98351.25;;;1.47;100.00
9672;BME280;4874;43.568;27.824;2023-01-28T02:49:59;98319.34;;;1.03;100.00
9672;BME280;4874;43.568;27.824;2023-01-28T02:55:42;98367.03;;;1.46;100.00
9672;BME280;4874;43.568;27.824;2023-01-28T02:58:41;98364.94;;;1.51;100.00
9672;BME280;4874;43.568;27.824;2023-01-28T03:06:21;98359.47;;;1.29;100.00
9672;BME280;4874;43.568;27.824;2023-01-28T03:08:54;98292.53;;;1.01;100.00
9672;BME280;4874;43.568;27.824;2023-01-28T03:11:43;98357.75;;;1.02;100.00
9672;BME280;4874;43.568;27.824;2023-01-28T03:14:31;98346.69;;;0.85;100.00
9672;BME280;4874;43.568;27.824;2023-01-28T03:20:10;98367.38;;;1.27;100.00
9672;BME280;4874;43.568;27.824;2023-01-28T03:22:57;98372.50;;;1.16;100.00
9672;BME280;4874;43.568;27.824;2023-01-28T03:25:47;98373.09;;;1.07;100.00
9672;BME280;4874;43.568;27.824;2023-01-28T03:28:35;98380.88;;;1.21;100.00
9672;BME280;4874;43.568;27.824;2023-01-28T03:31:21;98352.88;;;0.84;100.00
9672;BME280;4874;43.568;27.824;2023-01-28T03:34:09;98377.78;;;1.02;100.00
9672;BME280;4874;43.568;27.824;2023-01-28T03:36:55;98376.72;;;0.92;100.00
9672;BME280;4874;43.568;27.824;2023-01-28T03:39:25;98377.78;;;1.02;100.00
9672;BME280;4874;43.568;27.824;2023-01-28T03:42:18;98373.56;;;0.87;100.00
9672;BME280;4874;43.568;27.824;2023-01-28T03:44:45;98383.72;;;0.91;100.00
9672;BME280;4874;43.568;27.824;2023-01-28T03:47:15;98391.28;;;0.96;100.00
9672;BME280;4874;43.568;27.824;2023-01-28T03:49:44;98376.19;;;0.99;100.00
9672;BME280;4874;43.568;27.824;2023-01-28T03:52:11;98387.13;;;1.06;100.00
9672;BME280;4874;43.568;27.824;2023-01-28T03:54:38;98385.78;;;1.26;100.00
9672;BME280;4874;43.568;27.824;2023-01-28T03:57:05;98376.19;;;0.87;100.00
9672;BME280;4874;43.568;27.824;2023-01-28T03:59:32;98387.59;;;0.98;100.00
9672;BME280;4874;43.568;27.824;2023-01-28T04:02:00;98325.84;;;0.71;100.00
9672;BME280;4874;43.568;27.824;2023-01-28T04:04:29;98398.38;;;0.94;100.00
9672;BME280;4874;43.568;27.824;2023-01-28T04:06:58;98389.28;;;0.73;100.00
9672;BME280;4874;43.568;27.824;2023-01-28T04:09:24;98390.38;;;1.09;100.00
9672;BME280;4874;43.568;27.824;2023-01-28T04:11:51;98391.66;;;0.63;100.00
9672;BME280;4874;43.568;27.824;2023-01-28T04:14:18;98400.97;;;0.94;100.00
9672;BME280;4874;43.568;27.824;2023-01-28T04:16:44;98408.16;;;0.90;100.00
9672;BME280;4874;43.568;27.824;2023-01-28T04:19:11;98420.50;;;0.88;100.00
9672;BME280;4874;43.568;27.824;2023-01-28T04:21:39;98413.81;;;0.70;100.00
9672;BME280;4874;43.568;27.824;2023-01-28T04:24:06;98409.97;;;0.76;100.00
9672;BME280;4874;43.568;27.824;2023-01-28T04:26:32;98405.66;;;0.89;100.00
9672;BME280;4874;43.568;27.824;2023-01-28T04:28:59;98413.72;;;0.98;100.00
9672;BME280;4874;43.568;27.824;2023-01-28T04:31:26;98408.66;;;0.83;100.00
9672;BME280;4874;43.568;27.824;2023-01-28T04:33:52;98373.91;;;0.68;100.00
9672;BME280;4874;43.568;27.824;2023-01-28T04:36:19;98418.34;;;0.81;100.00
9672;BME280;4874;43.568;27.824;2023-01-28T04:38:46;98416.47;;;0.83;100.00
9672;BME280;4874;43.568;27.824;2023-01-28T04:41:13;98423.78;;;0.78;100.00
9672;BME280;4874;43.568;27.824;2023-01-28T04:43:40;98426.81;;;0.58;100.00
9672;BME280;4874;43.568;27.824;2023-01-28T04:46:07;98425.22;;;0.55;100.00
9672;BME280;4874;43.568;27.824;2023-01-28T04:48:34;98383.03;;;0.21;100.00
9672;BME280;4874;43.568;27.824;2023-01-28T04:51:03;98428.38;;;0.60;100.00
9672;BME280;4874;43.568;27.824;2023-01-28T04:53:30;98440.06;;;0.55;100.00
9672;BME280;4874;43.568;27.824;2023-01-28T04:55:56;98443.38;;;0.71;100.00
9672;BME280;4874;43.568;27.824;2023-01-28T04:58:23;98437.91;;;0.61;100.00
9672;BME280;4874;43.568;27.824;2023-01-28T05:00:56;98451.41;;;0.82;100.00
9672;BME280;4874;43.568;27.824;2023-01-28T05:03:23;98433.22;;;0.66;100.00
9672;BME280;4874;43.568;27.824;2023-01-28T05:05:50;98449.56;;;0.70;100.00
9672;BME280;4874;43.568;27.824;2023-01-28T05:08:17;98452.06;;;0.71;100.00
9672;BME280;4874;43.568;27.824;2023-01-28T05:10:44;98463.16;;;0.61;100.00
9672;BME280;4874;43.568;27.824;2023-01-28T05:13:10;98456.28;;;0.46;100.00
9672;BME280;4874;43.568;27.824;2023-01-28T05:15:37;98430.38;;;0.43;100.00
9672;BME280;4874;43.568;27.824;2023-01-28T05:18:04;98472.31;;;0.54;100.00
9672;BME280;4874;43.568;27.824;2023-01-28T05:20:30;98467.84;;;0.56;100.00
9672;BME280;4874;43.568;27.824;2023-01-28T05:22:57;98473.25;;;0.67;100.00
9672;BME280;4874;43.568;27.824;2023-01-28T05:25:24;98475.88;;;0.53;100.00
9672;BME280;4874;43.568;27.824;2023-01-28T05:27:52;98472.66;;;0.62;100.00
9672;BME280;4874;43.568;27.824;2023-01-28T05:30:19;98469.22;;;0.75;100.00
9672;BME280;4874;43.568;27.824;2023-01-28T05:32:45;98481.56;;;0.45;100.00
9672;BME280;4874;43.568;27.824;2023-01-28T05:35:12;98486.50;;;0.36;100.00
9672;BME280;4874;43.568;27.824;2023-01-28T05:37:39;98492.47;;;0.24;100.00
9672;BME280;4874;43.568;27.824;2023-01-28T05:40:06;98499.06;;;0.43;100.00
9672;BME280;4874;43.568;27.824;2023-01-28T05:42:34;98486.78;;;0.17;100.00
9672;BME280;4874;43.568;27.824;2023-01-28T05:45:00;98488.56;;;0.31;100.00
9672;BME280;4874;43.568;27.824;2023-01-28T05:47:27;98474.63;;;0.02;100.00
9672;BME280;4874;43.568;27.824;2023-01-28T05:49:54;98499.94;;;0.44;100.00
9672;BME280;4874;43.568;27.824;2023-01-28T05:52:20;98505.78;;;0.33;100.00
9672;BME280;4874;43.568;27.824;2023-01-28T05:54:47;98500.13;;;0.41;100.00
9672;BME280;4874;43.568;27.824;2023-01-28T05:57:14;98506.09;;;0.43;100.00
9672;BME280;4874;43.568;27.824;2023-01-28T05:59:41;98508.47;;;0.18;100.00
9672;BME280;4874;43.568;27.824;2023-01-28T06:02:07;98507.56;;;0.33;100.00
9672;BME280;4874;43.568;27.824;2023-01-28T06:04:34;98526.22;;;0.27;100.00
9672;BME280;4874;43.568;27.824;2023-01-28T06:07:01;98525.63;;;0.08;100.00
9672;BME280;4874;43.568;27.824;2023-01-28T06:09:27;98523.75;;;0.10;100.00
9672;BME280;4874;43.568;27.824;2023-01-28T06:11:54;98523.78;;;0.24;100.00
9672;BME280;4874;43.568;27.824;2023-01-28T06:14:21;98538.31;;;0.28;100.00
9672;BME280;4874;43.568;27.824;2023-01-28T06:16:47;98540.19;;;0.26;100.00
9672;BME280;4874;43.568;27.824;2023-01-28T06:19:15;98539.47;;;0.38;100.00
9672;BME280;4874;43.568;27.824;2023-01-28T06:21:42;98546.06;;;0.43;100.00
9672;BME280;4874;43.568;27.824;2023-01-28T06:24:08;98545.00;;;0.18;100.00
9672;BME280;4874;43.568;27.824;2023-01-28T06:26:35;98549.47;;;0.02;100.00
9672;BME280;4874;43.568;27.824;2023-01-28T06:29:02;98541.47;;;0.05;100.00
9672;BME280;4874;43.568;27.824;2023-01-28T06:31:29;98548.09;;;0.10;100.00
9672;BME280;4874;43.568;27.824;2023-01-28T06:33:55;98561.72;;;0.15;100.00
9672;BME280;4874;43.568;27.824;2023-01-28T06:36:22;98559.25;;;0.12;100.00
9672;BME280;4874;43.568;27.824;2023-01-28T06:38:49;98555.16;;;0.08;100.00
9672;BME280;4874;43.568;27.824;2023-01-28T06:41:15;98558.72;;;0.21;100.00
9672;BME280;4874;43.568;27.824;2023-01-28T06:43:42;98559.38;;;0.25;100.00
9672;BME280;4874;43.568;27.824;2023-01-28T06:46:09;98552.75;;;0.19;100.00
9672;BME280;4874;43.568;27.824;2023-01-28T06:48:35;98567.53;;;0.34;100.00
9672;BME280;4874;43.568;27.824;2023-01-28T06:51:02;98566.56;;;0.35;100.00
9672;BME280;4874;43.568;27.824;2023-01-28T06:53:29;98565.47;;;0.39;100.00
9672;BME280;4874;43.568;27.824;2023-01-28T06:55:55;98566.63;;;0.63;100.00
9672;BME280;4874;43.568;27.824;2023-01-28T06:58:22;98575.56;;;0.16;100.00
9672;BME280;4874;43.568;27.824;2023-01-28T07:00:49;98580.28;;;0.39;100.00
9672;BME280;4874;43.568;27.824;2023-01-28T07:03:15;98579.44;;;0.38;100.00
9672;BME280;4874;43.568;27.824;2023-01-28T07:05:42;98610.66;;;0.26;100.00
9672;BME280;4874;43.568;27.824;2023-01-28T07:08:09;98594.38;;;0.50;100.00
9672;BME280;4874;43.568;27.824;2023-01-28T07:10:36;98591.59;;;0.67;100.00
9672;BME280;4874;43.568;27.824;2023-01-28T07:13:02;98597.00;;;0.21;100.00
9672;BME280;4874;43.568;27.824;2023-01-28T07:15:29;98596.44;;;0.59;100.00
9672;BME280;4874;43.568;27.824;2023-01-28T07:17:56;98598.22;;;0.73;100.00
9672;BME280;4874;43.568;27.824;2023-01-28T07:20:24;98602.31;;;0.49;100.00
9672;BME280;4874;43.568;27.824;2023-01-28T07:22:51;98558.13;;;0.02;100.00
9672;BME280;4874;43.568;27.824;2023-01-28T07:25:18;98613.84;;;0.45;100.00
9672;BME280;4874;43.568;27.824;2023-01-28T07:27:49;98613.78;;;0.46;100.00
9672;BME280;4874;43.568;27.824;2023-01-28T07:30:17;98613.69;;;0.48;100.00
9672;BME280;4874;43.568;27.824;2023-01-28T07:32:44;98611.25;;;0.45;100.00
9672;BME280;4874;43.568;27.824;2023-01-28T07:35:12;98604.91;;;0.49;100.00
9672;BME280;4874;43.568;27.824;2023-01-28T07:37:39;98619.22;;;0.71;100.00
9672;BME280;4874;43.568;27.824;2023-01-28T07:40:06;98631.97;;;0.48;100.00
9672;BME280;4874;43.568;27.824;2023-01-28T07:42:33;98628.06;;;0.55;100.00
9672;BME280;4874;43.568;27.824;2023-01-28T07:44:59;98617.31;;;0.45;100.00
9672;BME280;4874;43.568;27.824;2023-01-28T07:47:26;98619.66;;;0.64;100.00
9672;BME280;4874;43.568;27.824;2023-01-28T07:49:53;98631.41;;;0.43;100.00
9672;BME280;4874;43.568;27.824;2023-01-28T07:52:20;98629.34;;;0.48;100.00
9672;BME280;4874;43.568;27.824;2023-01-28T07:54:47;98630.66;;;0.41;100.00
9672;BME280;4874;43.568;27.824;2023-01-28T07:57:14;98637.47;;;0.57;100.00
9672;BME280;4874;43.568;27.824;2023-01-28T07:59:40;98632.13;;;0.45;100.00
9672;BME280;4874;43.568;27.824;2023-01-28T08:02:10;98426.56;;;-0.81;100.00
9672;BME280;4874;43.568;27.824;2023-01-28T08:04:37;98626.31;;;0.26;100.00
9672;BME280;4874;43.568;27.824;2023-01-28T08:07:06;98635.97;;;0.53;100.00
9672;BME280;4874;43.568;27.824;2023-01-28T08:09:33;98584.72;;;0.23;100.00
9672;BME280;4874;43.568;27.824;2023-01-28T08:12:00;98648.63;;;0.45;100.00
9672;BME280;4874;43.568;27.824;2023-01-28T08:14:28;98613.84;;;0.31;100.00
9672;BME280;4874;43.568;27.824;2023-01-28T08:16:54;98647.66;;;0.76;100.00
9672;BME280;4874;43.568;27.824;2023-01-28T08:19:22;98646.56;;;0.80;100.00
9672;BME280;4874;43.568;27.824;2023-01-28T08:21:49;98627.22;;;0.54;100.00
9672;BME280;4874;43.568;27.824;2023-01-28T08:24:16;98641.72;;;0.30;100.00
9672;BME280;4874;43.568;27.824;2023-01-28T08:26:43;98634.16;;;0.26;100.00
9672;BME280;4874;43.568;27.824;2023-01-28T08:29:10;98644.88;;;0.35;100.00
9672;BME280;4874;43.568;27.824;2023-01-28T08:31:38;98636.53;;;0.15;100.00
9672;BME280;4874;43.568;27.824;2023-01-28T08:34:04;98641.09;;;0.11;100.00
9672;BME280;4874;43.568;27.824;2023-01-28T08:36:31;98648.03;;;0.26;100.00
9672;BME280;4874;43.568;27.824;2023-01-28T08:38:58;98639.81;;;0.48;100.00
9672;BME280;4874;43.568;27.824;2023-01-28T08:41:24;98659.78;;;0.33;100.00
9672;BME280;4874;43.568;27.824;2023-01-28T08:43:51;98653.19;;;0.12;100.00
9672;BME280;4874;43.568;27.824;2023-01-28T08:46:18;98648.69;;;0.59;100.00
9672;BME280;4874;43.568;27.824;2023-01-28T08:48:44;98648.19;;;0.53;100.00
9672;BME280;4874;43.568;27.824;2023-01-28T08:51:11;98648.06;;;0.40;100.00
9672;BME280;4874;43.568;27.824;2023-01-28T08:53:38;98624.13;;;0.62;100.00
9672;BME280;4874;43.568;27.824;2023-01-28T08:56:05;98641.66;;;0.46;100.00
9672;BME280;4874;43.568;27.824;2023-01-28T08:58:32;98639.03;;;0.46;100.00
9672;BME280;4874;43.568;27.824;2023-01-28T09:01:03;98650.00;;;0.37;100.00
9672;BME280;4874;43.568;27.824;2023-01-28T09:03:31;98561.94;;;-0.04;100.00
9672;BME280;4874;43.568;27.824;2023-01-28T09:06:02;98642.59;;;0.59;100.00
9672;BME280;4874;43.568;27.824;2023-01-28T09:08:30;98638.81;;;0.78;100.00
9672;BME280;4874;43.568;27.824;2023-01-28T09:10:57;98657.69;;;0.54;100.00
9672;BME280;4874;43.568;27.824;2023-01-28T09:13:25;98645.94;;;0.47;100.00
9672;BME280;4874;43.568;27.824;2023-01-28T09:15:52;98648.59;;;0.61;100.00
9672;BME280;4874;43.568;27.824;2023-01-28T09:18:19;98626.19;;;0.13;100.00
9672;BME280;4874;43.568;27.824;2023-01-28T09:20:45;98648.00;;;0.56;100.00
9672;BME280;4874;43.568;27.824;2023-01-28T09:23:13;98643.13;;;0.36;100.00
9672;BME280;4874;43.568;27.824;2023-01-28T09:25:40;98647.38;;;0.66;100.00
9672;BME280;4874;43.568;27.824;2023-01-28T09:28:07;98642.88;;;0.54;100.00
9672;BME280;4874;43.568;27.824;2023-01-28T09:30:34;98644.59;;;0.83;100.00
9672;BME280;4874;43.568;27.824;2023-01-28T09:33:02;98641.81;;;0.86;100.00
9672;BME280;4874;43.568;27.824;2023-01-28T09:35:29;98653.47;;;0.95;100.00
9672;BME280;4874;43.568;27.824;2023-01-28T09:37:57;98649.28;;;0.92;100.00
9672;BME280;4874;43.568;27.824;2023-01-28T09:40:44;98655.03;;;1.11;100.00
9672;BME280;4874;43.568;27.824;2023-01-28T09:45:56;98643.53;;;0.58;100.00
9672;BME280;4874;43.568;27.824;2023-01-28T09:48:36;98616.59;;;0.71;100.00
9672;BME280;4874;43.568;27.824;2023-01-28T09:51:08;98609.78;;;0.83;100.00
9672;BME280;4874;43.568;27.824;2023-01-28T09:53:42;98586.00;;;0.73;100.00
9672;BME280;4874;43.568;27.824;2023-01-28T09:56:15;98603.91;;;0.79;100.00
9672;BME280;4874;43.568;27.824;2023-01-28T09:58:46;98638.25;;;1.44;100.00
9672;BME280;4874;43.568;27.824;2023-01-28T10:04:11;98643.94;;;1.22;100.00
9672;BME280;4874;43.568;27.824;2023-01-28T10:10:11;98640.69;;;0.90;100.00
9672;BME280;4874;43.568;27.824;2023-01-28T10:18:49;98638.63;;;0.95;100.00
9672;BME280;4874;43.568;27.824;2023-01-28T10:21:23;98637.25;;;1.04;100.00
9672;BME280;4874;43.568;27.824;2023-01-28T10:24:14;98639.38;;;1.11;100.00
9672;BME280;4874;43.568;27.824;2023-01-28T10:26:43;98615.88;;;0.83;100.00
9672;BME280;4874;43.568;27.824;2023-01-28T10:29:15;98636.88;;;0.82;100.00
9672;BME280;4874;43.568;27.824;2023-01-28T10:32:03;98631.81;;;1.07;100.00
9672;BME280;4874;43.568;27.824;2023-01-28T10:34:31;98582.53;;;0.45;100.00
9672;BME280;4874;43.568;27.824;2023-01-28T10:36:58;98639.66;;;1.07;100.00
9672;BME280;4874;43.568;27.824;2023-01-28T10:39:25;98590.03;;;0.65;100.00
9672;BME280;4874;43.568;27.824;2023-01-28T10:41:52;98637.03;;;1.35;100.00
9672;BME280;4874;43.568;27.824;2023-01-28T11:07:28;98625.09;;;0.75;100.00
9672;BME280;4874;43.568;27.824;2023-01-28T11:09:55;98647.75;;;1.31;100.00
9672;BME280;4874;43.568;27.824;2023-01-28T11:12:25;98629.03;;;0.96;100.00
9672;BME280;4874;43.568;27.824;2023-01-28T11:14:55;98635.72;;;0.86;100.00
9672;BME280;4874;43.568;27.824;2023-01-28T11:17:31;98631.06;;;0.77;100.00
9672;BME280;4874;43.568;27.824;2023-01-28T11:20:19;98623.25;;;0.77;100.00
9672;BME280;4874;43.568;27.824;2023-01-28T11:22:47;98613.16;;;0.71;100.00
9672;BME280;4874;43.568;27.824;2023-01-28T11:27:52;98639.09;;;0.88;100.00
9672;BME280;4874;43.568;27.824;2023-01-28T11:33:06;98627.75;;;0.45;100.00
9672;BME280;4874;43.568;27.824;2023-01-28T11:35:39;98512.91;;;-0.13;100.00
9672;BME280;4874;43.568;27.824;2023-01-28T11:38:22;98645.81;;;0.78;100.00
9672;BME280;4874;43.568;27.824;2023-01-28T11:40:54;98661.03;;;0.99;100.00
9672;BME280;4874;43.568;27.824;2023-01-28T11:43:29;98664.00;;;0.79;100.00
9672;BME280;4874;43.568;27.824;2023-01-28T11:49:02;98668.22;;;0.82;100.00
9672;BME280;4874;43.568;27.824;2023-01-28T11:51:59;98664.06;;;0.64;100.00
9672;BME280;4874;43.568;27.824;2023-01-28T11:54:52;98667.06;;;0.86;100.00
9672;BME280;4874;43.568;27.824;2023-01-28T12:03:15;98666.50;;;0.81;100.00
9672;BME280;4874;43.568;27.824;2023-01-28T12:05:55;98666.50;;;0.67;100.00
9672;BME280;4874;43.568;27.824;2023-01-28T12:08:33;98666.50;;;0.81;100.00
9672;BME280;4874;43.568;27.824;2023-01-28T12:11:32;98671.72;;;0.81;100.00
9672;BME280;4874;43.568;27.824;2023-01-28T12:14:32;98669.38;;;0.62;100.00
9672;BME280;4874;43.568;27.824;2023-01-28T12:17:22;98675.63;;;0.74;100.00
9672;BME280;4874;43.568;27.824;2023-01-28T12:39:25;98684.41;;;0.73;100.00
9672;BME280;4874;43.568;27.824;2023-01-28T12:44:35;98683.97;;;0.94;100.00
9672;BME280;4874;43.568;27.824;2023-01-28T12:47:19;98687.59;;;0.78;100.00
9672;BME280;4874;43.568;27.824;2023-01-28T12:49:58;98692.13;;;1.04;100.00
9672;BME280;4874;43.568;27.824;2023-01-28T12:52:38;98705.69;;;0.67;100.00
9672;BME280;4874;43.568;27.824;2023-01-28T12:55:11;98711.25;;;1.04;100.00
9672;BME280;4874;43.568;27.824;2023-01-28T12:57:41;98701.78;;;0.88;100.00
9672;BME280;4874;43.568;27.824;2023-01-28T13:00:28;98707.22;;;0.99;100.00
9672;BME280;4874;43.568;27.824;2023-01-28T13:03:25;98712.66;;;0.96;100.00
9672;BME280;4874;43.568;27.824;2023-01-28T13:06:00;98707.97;;;1.15;100.00
9672;BME280;4874;43.568;27.824;2023-01-28T13:08:28;98713.66;;;0.93;100.00
9672;BME280;4874;43.568;27.824;2023-01-28T13:11:00;98701.19;;;0.69;100.00
9672;BME280;4874;43.568;27.824;2023-01-28T13:15:56;98723.81;;;0.84;100.00
9672;BME280;4874;43.568;27.824;2023-01-28T13:21:11;98736.06;;;0.97;100.00
9672;BME280;4874;43.568;27.824;2023-01-28T13:23:42;98777.09;;;0.81;100.00
9672;BME280;4874;43.568;27.824;2023-01-28T13:28:50;98744.22;;;0.77;100.00
9672;BME280;4874;43.568;27.824;2023-01-28T13:31:20;98739.56;;;0.68;100.00
9672;BME280;4874;43.568;27.824;2023-01-28T13:34:00;98750.69;;;0.86;100.00
9672;BME280;4874;43.568;27.824;2023-01-28T13:36:38;98750.53;;;0.89;100.00
9672;BME280;4874;43.568;27.824;2023-01-28T13:44:31;98748.72;;;0.89;100.00
9672;BME280;4874;43.568;27.824;2023-01-28T13:49:40;98767.09;;;0.88;100.00
9672;BME280;4874;43.568;27.824;2023-01-28T13:54:40;98763.31;;;0.93;100.00
9672;BME280;4874;43.568;27.824;2023-01-28T14:17:45;98787.63;;;0.80;100.00
9672;BME280;4874;43.568;27.824;2023-01-28T14:22:42;98778.94;;;0.79;100.00
9672;BME280;4874;43.568;27.824;2023-01-28T14:25:21;98802.88;;;1.01;100.00
9672;BME280;4874;43.568;27.824;2023-01-28T14:27:53;98808.63;;;0.63;100.00
9672;BME280;4874;43.568;27.824;2023-01-28T14:33:08;98792.09;;;0.78;100.00
9672;BME280;4874;43.568;27.824;2023-01-28T14:35:38;98786.16;;;0.90;100.00
9672;BME280;4874;43.568;27.824;2023-01-28T14:38:14;98791.63;;;0.56;100.00
9672;BME280;4874;43.568;27.824;2023-01-28T14:40:42;98799.88;;;0.64;100.00
9672;BME280;4874;43.568;27.824;2023-01-28T14:43:17;98823.38;;;0.64;100.00
9672;BME280;4874;43.568;27.824;2023-01-28T14:54:32;98835.59;;;0.63;100.00
9672;BME280;4874;43.568;27.824;2023-01-28T14:59:42;98833.72;;;0.65;100.00
9672;BME280;4874;43.568;27.824;2023-01-28T15:02:23;98782.94;;;0.10;100.00
9672;BME280;4874;43.568;27.824;2023-01-28T15:04:54;98850.25;;;0.50;100.00
9672;BME280;4874;43.568;27.824;2023-01-28T15:07:26;98856.81;;;0.73;100.00
9672;BME280;4874;43.568;27.824;2023-01-28T15:10:05;98825.50;;;0.42;100.00
9672;BME280;4874;43.568;27.824;2023-01-28T15:12:36;98860.94;;;0.77;100.00
9672;BME280;4874;43.568;27.824;2023-01-28T15:15:22;98860.03;;;0.62;100.00
9672;BME280;4874;43.568;27.824;2023-01-28T15:18:01;98830.72;;;0.42;100.00
9672;BME280;4874;43.568;27.824;2023-01-28T15:20:29;98851.69;;;0.56;100.00
9672;BME280;4874;43.568;27.824;2023-01-28T15:23:05;98745.03;;;-0.13;100.00
9672;BME280;4874;43.568;27.824;2023-01-28T15:25:32;98821.31;;;0.39;100.00
9672;BME280;4874;43.568;27.824;2023-01-28T15:28:00;98830.63;;;0.43;100.00
9672;BME280;4874;43.568;27.824;2023-01-28T15:30:30;98858.47;;;0.74;100.00
9672;BME280;4874;43.568;27.824;2023-01-28T15:32:59;98844.94;;;0.52;100.00
9672;BME280;4874;43.568;27.824;2023-01-28T15:35:26;98858.28;;;1.52;100.00
9672;BME280;4874;43.568;27.824;2023-01-28T15:37:53;98862.19;;;1.45;100.00
9672;BME280;4874;43.568;27.824;2023-01-28T15:40:21;98833.25;;;0.43;100.00
9672;BME280;4874;43.568;27.824;2023-01-28T15:42:49;98870.47;;;0.78;100.00
9672;BME280;4874;43.568;27.824;2023-01-28T15:45:18;98883.44;;;0.64;100.00
9672;BME280;4874;43.568;27.824;2023-01-28T15:47:46;98881.28;;;0.72;100.00
9672;BME280;4874;43.568;27.824;2023-01-28T15:50:23;98894.38;;;0.70;100.00
9672;BME280;4874;43.568;27.824;2023-01-28T15:52:52;98876.72;;;0.60;100.00
9672;BME280;4874;43.568;27.824;2023-01-28T15:55:41;98821.97;;;0.27;100.00
9672;BME280;4874;43.568;27.824;2023-01-28T15:58:16;98889.69;;;0.61;100.00
9672;BME280;4874;43.568;27.824;2023-01-28T16:00:45;98903.91;;;0.56;100.00
9672;BME280;4874;43.568;27.824;2023-01-28T16:03:20;98891.53;;;0.59;100.00